Time;durP1;ratioP1;P1;durP2;ratioP2;P2;SDS_P1;SDS_P2;PMS_P1;PMS_P2;Temp;Humidity;BMP_temperature;BMP_pressure;BME280_temperature;BME280_humidity;BME280_pressure;Samples;Min_cycle;Max_cycle;Signal;HPM_P1;HPM_P2
2023/01/05 17:37:22;;;;;;;14.93;7.30;;;8.90;99.90;;;;;;7430154;19;2912390;-74
2023/01/05 17:39:54;;;;;;;12.88;6.88;;;8.60;99.90;;;;;;7569275;19;20014;-74
2023/01/05 17:42:41;;;;;;;13.65;7.45;;;8.60;99.90;;;;;;7612911;19;20671;-75
2023/01/05 17:45:19;;;;;;;21.13;9.05;;;8.70;99.90;;;;;;7612896;19;20018;-76
2023/01/05 17:47:52;;;;;;;16.27;8.27;;;8.80;99.90;;;;;;7622122;19;20585;-75
2023/01/05 17:50:29;;;;;;;17.23;9.67;;;8.80;99.90;;;;;;7606232;19;20037;-75
2023/01/05 17:53:21;;;;;;;17.83;10.68;;;8.80;99.90;;;;;;7616977;19;20676;-76
2023/01/05 17:55:54;;;;;;;14.87;9.00;;;8.90;99.90;;;;;;7605013;19;20041;-75
2023/01/05 17:58:26;;;;;;;18.95;9.70;;;9.00;99.90;;;;;;7582797;19;20596;-76
2023/01/05 18:00:58;;;;;;;13.77;9.13;;;9.00;99.90;;;;;;7591818;19;20607;-75
2023/01/05 18:03:31;;;;;;;21.98;9.57;;;9.10;99.90;;;;;;7572117;19;20026;-74
2023/01/05 18:06:04;;;;;;;17.05;9.80;;;9.10;99.90;;;;;;7561332;19;25008;-73
2023/01/05 18:08:36;;;;;;;18.02;10.23;;;9.10;99.90;;;;;;7607805;19;20022;-73
2023/01/05 18:11:08;;;;;;;15.93;9.17;;;9.10;99.90;;;;;;7639573;19;20011;-74
2023/01/05 18:13:40;;;;;;;21.70;10.15;;;9.10;99.90;;;;;;7619067;19;20282;-74
2023/01/05 18:16:33;;;;;;;17.35;10.15;;;9.10;99.90;;;;;;7623545;19;20018;-77
2023/01/05 18:19:04;;;;;;;21.60;11.20;;;9.20;99.90;;;;;;7627869;19;20574;-76
2023/01/05 18:21:37;;;;;;;18.48;10.50;;;9.20;99.90;;;;;;7602489;19;20022;-73
2023/01/05 18:24:08;;;;;;;21.13;9.63;;;9.20;99.90;;;;;;7600718;19;20541;-76
2023/01/05 18:26:41;;;;;;;22.25;11.65;;;9.30;99.90;;;;;;7626786;19;20021;-75
2023/01/05 18:29:12;;;;;;;20.88;10.15;;;9.30;99.90;;;;;;7621861;19;20022;-76
2023/01/05 18:31:45;;;;;;;23.92;11.65;;;9.30;99.90;;;;;;7598289;19;20017;-75
2023/01/05 18:34:18;;;;;;;19.48;10.68;;;9.30;99.90;;;;;;7613875;19;20029;-75
2023/01/05 18:36:50;;;;;;;24.52;12.05;;;9.30;99.90;;;;;;7576750;19;20019;-74
2023/01/05 18:39:36;;;;;;;29.13;11.98;;;9.20;99.90;;;;;;7629782;19;20018;-75
2023/01/05 18:42:08;;;;;;;23.73;10.68;;;9.20;99.90;;;;;;7617034;19;20632;-75
2023/01/05 18:44:40;;;;;;;25.88;12.23;;;9.20;99.90;;;;;;7621735;19;20021;-75
2023/01/05 18:47:12;;;;;;;15.40;9.00;;;9.20;99.90;;;;;;7576512;19;20023;-75
2023/01/05 18:49:45;;;;;;;11.83;7.40;;;9.20;99.90;;;;;;7575917;19;20019;-75
2023/01/05 18:52:17;;;;;;;15.50;7.40;;;9.30;99.90;;;;;;7589887;19;20041;-75
2023/01/05 18:54:49;;;;;;;12.18;8.57;;;9.30;99.90;;;;;;7597827;19;20018;-75
2023/01/05 18:57:21;;;;;;;15.57;8.50;;;9.30;99.90;;;;;;7610061;19;20468;-74
2023/01/05 18:59:53;;;;;;;13.18;9.18;;;9.30;99.90;;;;;;7576651;19;21915;-75
2023/01/05 19:02:25;;;;;;;21.60;11.05;;;9.30;99.90;;;;;;7569402;19;20018;-75
2023/01/05 19:04:57;;;;;;;16.20;9.18;;;9.30;99.90;;;;;;7566171;19;20018;-73
2023/01/05 19:07:29;;;;;;;14.45;8.35;;;9.30;99.90;;;;;;7570787;19;20013;-73
2023/01/05 19:10:01;;;;;;;17.45;8.75;;;9.20;99.90;;;;;;7567591;19;20021;-73
2023/01/05 19:12:34;;;;;;;14.93;8.30;;;9.20;99.90;;;;;;7581004;19;20014;-73
2023/01/05 19:15:07;;;;;;;15.40;7.63;;;9.20;99.90;;;;;;7527894;19;20555;-75
2023/01/05 19:17:39;;;;;;;14.80;8.23;;;9.30;99.90;;;;;;7545126;19;21290;-74
2023/01/05 19:20:11;;;;;;;17.38;8.73;;;9.20;99.90;;;;;;7520342;19;20018;-75
2023/01/05 19:22:44;;;;;;;11.25;5.90;;;9.20;99.90;;;;;;7569525;19;20010;-74
2023/01/05 19:25:17;;;;;;;9.10;6.32;;;9.30;99.90;;;;;;7540341;19;20510;-74
2023/01/05 19:27:50;;;;;;;8.82;6.32;;;9.30;99.90;;;;;;7593649;19;20014;-73
2023/01/05 19:30:23;;;;;;;9.55;6.65;;;9.30;99.90;;;;;;7589982;19;20023;-74
2023/01/05 19:32:55;;;;;;;;;;;9.30;99.90;;;;;;7597885;19;20022;-74
2023/01/05 19:35:29;;;;;;;6.85;5.88;;;9.40;99.90;;;;;;7550673;19;19918;-74
2023/01/05 19:38:01;;;;;;;5.85;5.25;;;9.30;99.90;;;;;;7586921;19;20385;-73
2023/01/05 19:40:33;;;;;;;5.45;4.72;;;9.30;99.90;;;;;;7577477;19;20100;-73
2023/01/05 19:43:05;;;;;;;7.55;5.95;;;9.30;99.90;;;;;;7571914;19;20015;-75
2023/01/05 19:45:38;;;;;;;9.88;4.70;;;9.30;99.90;;;;;;7585113;19;20890;-75
2023/01/05 19:48:10;;;;;;;12.43;6.95;;;9.40;99.90;;;;;;7585051;19;20546;-75
2023/01/05 19:50:42;;;;;;;13.27;8.23;;;9.30;99.90;;;;;;7548498;19;20686;-75
2023/01/05 19:53:15;;;;;;;13.60;7.90;;;9.20;99.90;;;;;;7571292;19;20018;-75
2023/01/05 19:55:48;;;;;;;9.85;7.95;;;9.20;99.90;;;;;;7550488;19;20020;-73
2023/01/05 19:58:33;;;;;;;7.32;5.38;;;9.20;99.90;;;;;;7593945;19;20094;-73
2023/01/05 20:01:08;;;;;;;9.67;5.27;;;9.20;99.90;;;;;;7594653;19;20106;-76
2023/01/05 20:03:43;;;;;;;5.78;4.30;;;9.20;99.90;;;;;;7593484;19;20025;-73
2023/01/05 20:06:19;;;;;;;6.03;4.30;;;9.10;99.90;;;;;;7598040;19;20015;-74
2023/01/05 20:08:52;;;;;;;5.70;4.40;;;9.10;99.90;;;;;;7591351;19;20014;-73
2023/01/05 20:11:36;;;;;;;6.38;3.83;;;9.10;99.90;;;;;;7602037;19;20017;-75
2023/01/05 20:14:23;;;;;;;7.53;4.95;;;9.10;99.90;;;;;;7582642;19;20019;-73
2023/01/05 20:17:04;;;;;;;4.55;3.70;;;9.10;99.90;;;;;;7571256;19;20021;-73
2023/01/05 20:19:38;;;;;;;4.72;3.38;;;9.20;99.90;;;;;;7575838;19;20098;-73
2023/01/05 20:22:12;;;;;;;3.47;3.03;;;9.20;99.90;;;;;;7544578;19;20049;-72
2023/01/05 20:24:45;;;;;;;7.32;3.80;;;9.20;99.90;;;;;;7585600;19;20155;-72
2023/01/05 20:27:17;;;;;;;4.22;2.97;;;9.20;99.90;;;;;;7589792;19;20038;-72
2023/01/05 20:29:50;;;;;;;4.00;3.22;;;9.20;99.90;;;;;;7568848;19;20022;-74
2023/01/05 20:32:24;;;;;;;3.55;2.80;;;9.30;99.90;;;;;;7566964;19;20685;-73
2023/01/05 20:34:59;;;;;;;5.15;2.97;;;9.40;99.90;;;;;;7586444;19;21366;-75
2023/01/05 20:37:31;;;;;;;3.05;2.65;;;9.40;99.90;;;;;;7576839;19;20025;-72
2023/01/05 20:40:06;;;;;;;4.75;4.03;;;9.30;99.90;;;;;;7579911;19;20694;-73
2023/01/05 20:42:38;;;;;;;7.22;3.85;;;9.30;99.90;;;;;;7578912;19;20022;-74
2023/01/05 20:45:10;;;;;;;11.37;3.63;;;9.20;99.90;;;;;;7573260;19;20015;-75
2023/01/05 20:47:46;;;;;;;4.88;3.55;;;9.20;99.90;;;;;;7576686;19;20019;-75
2023/01/05 20:50:19;;;;;;;4.35;3.05;;;9.30;99.90;;;;;;7577748;19;20026;-75
2023/01/05 20:52:51;;;;;;;4.80;3.28;;;9.30;99.90;;;;;;7573657;19;20014;-75
2023/01/05 20:55:23;;;;;;;4.72;3.50;;;9.30;99.90;;;;;;7583899;19;20390;-74
2023/01/05 20:57:55;;;;;;;5.32;3.22;;;9.30;99.90;;;;;;7570316;19;20010;-75
2023/01/05 21:00:27;;;;;;;5.85;3.42;;;9.30;99.90;;;;;;7573620;19;20022;-75
2023/01/05 21:02:59;;;;;;;4.07;3.15;;;9.30;99.90;;;;;;7568884;19;20871;-74
2023/01/05 21:05:31;;;;;;;7.20;3.15;;;9.20;99.90;;;;;;7569947;19;20089;-75
